createdAt,value
2023-05-22T00:01:49.946Z,9.35
2023-05-22T00:03:24.440Z,9.88
2023-05-22T00:04:58.812Z,9.38
2023-05-22T00:06:30.611Z,9.82
2023-05-22T00:08:02.460Z,10.20
2023-05-22T00:09:34.055Z,10.60
2023-05-22T00:11:05.871Z,9.57
2023-05-22T00:12:37.696Z,9.85
2023-05-22T00:14:09.631Z,9.38
2023-05-22T00:15:41.375Z,9.60
2023-05-22T00:17:15.088Z,10.05
2023-05-22T00:18:47.566Z,10.00
2023-05-22T00:20:19.470Z,11.52
2023-05-22T00:21:51.407Z,10.20
2023-05-22T00:23:23.671Z,10.05
2023-05-22T00:24:55.257Z,10.77
2023-05-22T00:26:27.188Z,9.48
2023-05-22T00:27:58.814Z,9.15
2023-05-22T00:29:31.199Z,10.02
2023-05-22T00:31:03.226Z,9.65
2023-05-22T00:32:35.066Z,9.73
2023-05-22T00:34:06.840Z,10.93
2023-05-22T00:35:38.610Z,10.00
2023-05-22T00:37:10.860Z,10.70
2023-05-22T00:38:42.498Z,10.50
2023-05-22T00:40:18.136Z,10.18
2023-05-22T00:43:21.630Z,10.07
2023-05-22T00:44:53.372Z,9.77
2023-05-22T00:46:25.169Z,9.65
2023-05-22T00:47:56.941Z,10.10
2023-05-22T00:49:28.602Z,10.50
2023-05-22T00:51:00.785Z,9.93
2023-05-22T00:52:33.425Z,10.95
2023-05-22T00:54:06.141Z,9.40
2023-05-22T00:55:37.858Z,10.00
2023-05-22T00:57:09.606Z,10.07
2023-05-22T00:58:42.199Z,9.95
2023-05-22T01:00:15.442Z,10.20
2023-05-22T01:01:47.851Z,10.80
2023-05-22T01:03:25.755Z,10.40
2023-05-22T01:04:58.059Z,9.98
2023-05-22T01:06:32.188Z,10.80
2023-05-22T01:08:06.202Z,11.70
2023-05-22T01:09:38.233Z,10.60
2023-05-22T01:11:23.112Z,10.27
2023-05-22T01:13:19.432Z,10.13
2023-05-22T01:15:04.200Z,10.07
2023-05-22T01:16:49.042Z,10.27
2023-05-22T01:18:29.392Z,10.00
2023-05-22T01:20:12.042Z,10.02
2023-05-22T01:21:54.592Z,10.40
2023-05-22T01:24:03.737Z,10.88
2023-05-22T01:25:35.322Z,12.10
2023-05-22T01:27:25.769Z,11.25
2023-05-22T01:29:46.236Z,11.43
2023-05-22T01:31:19.838Z,10.27
2023-05-22T01:32:57.421Z,10.35
2023-05-22T01:34:30.650Z,10.30
2023-05-22T01:36:03.935Z,9.50
2023-05-22T01:37:36.602Z,10.27
2023-05-22T01:39:09.116Z,10.52
2023-05-22T01:40:40.932Z,9.73
2023-05-22T01:42:13.049Z,10.02
2023-05-22T01:43:46.409Z,11.25
2023-05-22T01:45:18.068Z,10.85
2023-05-22T01:46:50.157Z,10.32
2023-05-22T01:48:21.725Z,10.55
2023-05-22T01:49:53.640Z,11.05
2023-05-22T01:51:40.432Z,10.55
2023-05-22T01:53:15.511Z,9.93
2023-05-22T01:54:53.680Z,10.82
2023-05-22T01:56:46.494Z,10.55
2023-05-22T01:58:56.958Z,9.80
2023-05-22T02:00:30.084Z,10.05
2023-05-22T02:02:06.763Z,10.23
2023-05-22T02:03:40.177Z,9.82
2023-05-22T02:05:13.685Z,10.35
2023-05-22T02:06:47.247Z,10.43
2023-05-22T02:08:21.031Z,11.45
2023-05-22T02:09:55.638Z,9.35
2023-05-22T02:11:30.604Z,10.77
2023-05-22T02:13:02.495Z,10.60
2023-05-22T02:14:35.056Z,11.40
2023-05-22T02:16:07.237Z,11.13
2023-05-22T02:17:40.405Z,11.27
2023-05-22T02:19:15.402Z,9.63
2023-05-22T02:20:47.405Z,11.70
2023-05-22T02:22:19.189Z,10.35
2023-05-22T02:23:51.151Z,11.27
2023-05-22T02:25:23.160Z,10.73
2023-05-22T02:26:55.176Z,10.73
2023-05-22T02:28:27.370Z,10.40
2023-05-22T02:29:59.010Z,10.30
2023-05-22T02:31:30.779Z,11.23
2023-05-22T02:33:05.911Z,10.18
2023-05-22T02:34:38.054Z,10.88
2023-05-22T02:36:10.936Z,11.07
2023-05-22T02:37:42.627Z,10.90
2023-05-22T02:39:14.413Z,10.88
2023-05-22T02:40:47.123Z,10.32
2023-05-22T02:42:19.549Z,9.68
2023-05-22T02:43:51.385Z,10.38
2023-05-22T02:45:23.008Z,10.68
2023-05-22T02:46:55.772Z,10.35
2023-05-22T02:48:29.373Z,11.00
2023-05-22T02:50:01.130Z,11.68
2023-05-22T02:51:32.840Z,11.73
2023-05-22T02:53:04.494Z,11.60
2023-05-22T02:54:36.190Z,11.15
2023-05-22T02:56:10.771Z,11.90
2023-05-22T02:57:43.079Z,11.10
2023-05-22T02:59:14.802Z,11.15
2023-05-22T03:00:46.857Z,12.02
2023-05-22T03:02:19.884Z,11.75
2023-05-22T03:03:55.159Z,10.65
2023-05-22T03:05:27.129Z,11.23
2023-05-22T03:06:59.125Z,11.57
2023-05-22T03:08:31.713Z,11.10
2023-05-22T03:10:03.503Z,11.38
2023-05-22T03:11:35.143Z,10.80
2023-05-22T03:13:06.841Z,10.63
2023-05-22T03:14:38.956Z,10.82
2023-05-22T03:16:10.777Z,10.80
2023-05-22T03:17:47.415Z,11.02
2023-05-22T03:19:19.786Z,12.23
2023-05-22T03:20:51.410Z,11.57
2023-05-22T03:22:23.192Z,11.18
2023-05-22T03:23:55.173Z,11.65
2023-05-22T03:25:26.984Z,11.57
2023-05-22T03:27:00.132Z,12.13
2023-05-22T03:28:44.704Z,11.00
2023-05-22T03:30:16.594Z,10.70
2023-05-22T03:31:58.006Z,10.88
2023-05-22T03:33:30.332Z,11.43
2023-05-22T03:35:02.005Z,11.65
2023-05-22T03:36:36.560Z,11.15
2023-05-22T03:38:08.218Z,11.02
2023-05-22T03:39:40.044Z,11.23
2023-05-22T03:41:22.295Z,12.05
2023-05-22T03:42:54.046Z,10.80
2023-05-22T03:44:26.145Z,10.98
2023-05-22T03:45:59.365Z,13.10
2023-05-22T03:47:31.504Z,11.27
2023-05-22T03:49:03.220Z,10.98
2023-05-22T03:50:34.923Z,10.85
2023-05-22T03:52:06.722Z,11.57
2023-05-22T03:53:38.402Z,10.77
2023-05-22T03:55:10.111Z,11.23
2023-05-22T03:56:41.783Z,11.55
2023-05-22T03:58:13.477Z,10.32
2023-05-22T03:59:46.439Z,10.98
2023-05-22T04:01:18.245Z,11.15
2023-05-22T04:02:50.472Z,11.82
2023-05-22T04:04:22.169Z,11.18
2023-05-22T04:05:56.883Z,10.38
2023-05-22T04:07:28.599Z,11.05
2023-05-22T04:09:01.129Z,10.73
2023-05-22T04:10:32.794Z,10.43
2023-05-22T04:12:04.738Z,11.07
2023-05-22T04:13:36.364Z,10.82
2023-05-22T04:15:09.195Z,11.07
2023-05-22T04:16:40.907Z,10.20
2023-05-22T04:18:13.008Z,11.38
2023-05-22T04:19:46.316Z,10.30
2023-05-22T04:21:19.051Z,10.20
2023-05-22T04:22:50.737Z,10.57
2023-05-22T04:24:23.164Z,11.55
2023-05-22T04:25:55.463Z,10.93
2023-05-22T04:27:29.784Z,11.05
2023-05-22T04:29:02.331Z,12.18
2023-05-22T04:30:34.168Z,11.60
2023-05-22T04:32:10.572Z,11.18
2023-05-22T04:33:42.813Z,11.73
2023-05-22T04:35:18.261Z,12.02
2023-05-22T04:36:49.947Z,11.30
2023-05-22T04:38:26.235Z,11.20
2023-05-22T04:40:02.831Z,11.23
2023-05-22T04:41:34.510Z,12.27
2023-05-22T04:43:06.298Z,10.98
2023-05-22T04:44:38.301Z,10.95
2023-05-22T04:46:10.053Z,12.43
2023-05-22T04:47:42.717Z,11.23
2023-05-22T04:49:14.607Z,10.57
2023-05-22T04:50:46.429Z,11.90
2023-05-22T04:52:18.272Z,11.32
2023-05-22T04:53:51.925Z,11.32
2023-05-22T04:55:23.573Z,11.88
2023-05-22T04:56:55.202Z,10.88
2023-05-22T04:58:27.463Z,11.93
2023-05-22T04:59:59.108Z,11.23
2023-05-22T05:01:32.914Z,11.55
2023-05-22T05:03:07.953Z,11.23
2023-05-22T05:04:39.823Z,11.00
2023-05-22T05:06:12.590Z,12.60
2023-05-22T05:07:44.601Z,11.38
2023-05-22T05:09:16.289Z,10.65
2023-05-22T05:10:47.976Z,12.38
2023-05-22T05:12:19.609Z,11.63
2023-05-22T05:13:51.519Z,11.75
2023-05-22T05:15:23.969Z,11.57
2023-05-22T05:16:57.117Z,11.23
2023-05-22T05:18:28.947Z,11.25
2023-05-22T05:20:01.181Z,11.52
2023-05-22T05:21:32.878Z,10.95
2023-05-22T05:23:05.856Z,11.95
2023-05-22T05:24:37.876Z,12.35
2023-05-22T05:26:09.768Z,11.73
2023-05-22T05:27:41.466Z,10.85
2023-05-22T05:29:14.011Z,10.65
2023-05-22T05:30:52.923Z,11.95
2023-05-22T05:32:47.607Z,11.57
2023-05-22T05:34:31.408Z,10.88
2023-05-22T05:36:10.917Z,11.63
2023-05-22T05:37:43.459Z,11.60
2023-05-22T05:39:16.019Z,12.57
2023-05-22T05:40:48.723Z,12.55
2023-05-22T05:42:21.189Z,11.75
2023-05-22T05:43:57.283Z,11.50
2023-05-22T05:45:30.260Z,12.48
2023-05-22T05:47:02.631Z,11.70
2023-05-22T05:48:34.533Z,11.45
2023-05-22T05:50:07.188Z,11.55
2023-05-22T05:51:40.162Z,11.45
2023-05-22T05:53:12.597Z,11.23
2023-05-22T05:54:48.114Z,12.77
2023-05-22T05:56:24.188Z,11.65
2023-05-22T05:57:56.199Z,12.45
2023-05-22T05:59:44.286Z,13.00
2023-05-22T06:01:48.594Z,12.68
2023-05-22T06:03:27.267Z,12.38
2023-05-22T06:05:26.909Z,12.00
2023-05-22T06:07:06.066Z,11.57
2023-05-22T06:08:43.944Z,12.05
2023-05-22T06:10:15.833Z,12.43
2023-05-22T06:12:12.419Z,11.40
2023-05-22T06:13:45.202Z,11.23
2023-05-22T06:15:17.920Z,11.30
2023-05-22T06:16:49.611Z,11.50
2023-05-22T06:18:21.825Z,12.32
2023-05-22T06:19:53.520Z,12.02
2023-05-22T06:21:26.108Z,12.13
2023-05-22T06:22:57.894Z,11.90
2023-05-22T06:24:29.642Z,12.20
2023-05-22T06:26:01.504Z,12.02
2023-05-22T06:27:33.640Z,13.20
2023-05-22T06:29:06.458Z,12.40
2023-05-22T06:30:40.544Z,11.55
2023-05-22T06:32:17.784Z,11.70
2023-05-22T06:33:51.473Z,12.38
2023-05-22T06:35:23.269Z,11.65
2023-05-22T06:36:54.973Z,13.00
2023-05-22T06:38:31.495Z,12.20
2023-05-22T06:40:03.850Z,11.50
2023-05-22T06:41:45.589Z,12.00
2023-05-22T06:43:18.757Z,12.18
2023-05-22T06:45:00.354Z,12.15
2023-05-22T06:46:40.641Z,11.30
2023-05-22T06:48:12.572Z,12.38
2023-05-22T06:49:56.970Z,11.88
2023-05-22T06:51:29.434Z,11.65
2023-05-22T06:53:07.937Z,12.00
2023-05-22T06:54:42.974Z,12.18
2023-05-22T06:56:17.530Z,11.55
2023-05-22T06:58:02.244Z,11.77
2023-05-22T06:59:34.623Z,11.82
2023-05-22T07:01:12.274Z,12.15
2023-05-22T07:02:51.698Z,12.18
2023-05-22T07:04:29.469Z,12.15
2023-05-22T07:06:04.819Z,11.32
2023-05-22T07:07:37.175Z,11.98
2023-05-22T07:09:10.934Z,12.20
2023-05-22T07:10:43.084Z,10.52
2023-05-22T07:12:14.829Z,11.98
2023-05-22T07:13:47.004Z,12.30
2023-05-22T07:15:18.920Z,12.88
2023-05-22T07:16:56.268Z,11.55
2023-05-22T07:18:32.875Z,12.50
2023-05-22T07:20:05.411Z,11.75
2023-05-22T07:21:38.877Z,11.65
2023-05-22T07:23:11.615Z,12.00
2023-05-22T07:24:43.819Z,11.68
2023-05-22T07:26:16.250Z,11.30
2023-05-22T07:27:55.777Z,12.15
2023-05-22T07:29:27.793Z,11.82
2023-05-22T07:31:00.345Z,10.85
2023-05-22T07:32:32.358Z,10.52
2023-05-22T07:34:06.982Z,11.93
2023-05-22T07:35:39.833Z,11.57
2023-05-22T07:37:14.069Z,12.10
2023-05-22T07:38:46.930Z,11.55
2023-05-22T07:40:19.364Z,11.18
2023-05-22T07:41:51.345Z,10.98
2023-05-22T07:43:24.768Z,13.25
2023-05-22T07:44:56.585Z,11.55
2023-05-22T07:46:28.844Z,11.23
2023-05-22T07:48:12.205Z,10.18
2023-05-22T07:49:43.879Z,10.23
2023-05-22T07:51:15.953Z,10.57
2023-05-22T07:52:48.187Z,10.35
2023-05-22T07:54:20.170Z,11.70
2023-05-22T07:55:55.349Z,10.10
2023-05-22T07:57:27.308Z,10.82
2023-05-22T07:59:01.194Z,9.90
2023-05-22T08:00:32.763Z,10.77
2023-05-22T08:02:04.476Z,10.63
2023-05-22T08:03:36.552Z,9.57
2023-05-22T08:05:09.443Z,11.10
2023-05-22T08:06:41.617Z,10.63
2023-05-22T08:08:13.240Z,10.35
2023-05-22T08:09:46.725Z,10.38
2023-05-22T08:11:18.720Z,10.77
2023-05-22T08:12:50.423Z,11.20
2023-05-22T08:14:22.471Z,11.75
2023-05-22T08:16:00.682Z,11.50
2023-05-22T08:17:32.993Z,10.98
2023-05-22T08:19:07.079Z,11.27
2023-05-22T08:20:39.016Z,11.60
2023-05-22T08:22:10.914Z,11.45
2023-05-22T08:23:42.548Z,11.32
2023-05-22T08:25:14.167Z,10.65
2023-05-22T08:26:45.773Z,11.02
2023-05-22T08:28:17.672Z,11.23
2023-05-22T08:29:49.364Z,11.57
2023-05-22T08:31:21.156Z,11.07
2023-05-22T08:32:52.827Z,11.02
2023-05-22T08:34:25.162Z,11.38
2023-05-22T08:35:56.773Z,11.88
2023-05-22T08:37:28.395Z,11.77
2023-05-22T08:39:01.342Z,11.63
2023-05-22T08:55:05.095Z,12.80
2023-05-22T08:56:39.838Z,12.18
2023-05-22T08:58:18.374Z,11.85
2023-05-22T08:59:50.712Z,11.60
2023-05-22T09:01:22.904Z,12.98
2023-05-22T09:02:55.833Z,11.98
2023-05-22T09:04:28.642Z,10.82
2023-05-22T09:06:01.673Z,11.88
2023-05-22T09:07:33.340Z,13.68
2023-05-22T09:09:04.997Z,12.43
2023-05-22T09:10:36.766Z,12.95
2023-05-22T09:12:09.829Z,13.63
2023-05-22T09:13:41.682Z,11.57
2023-05-22T09:15:13.888Z,12.02
2023-05-22T09:16:46.497Z,13.48
2023-05-22T09:18:18.302Z,11.20
2023-05-22T09:19:49.958Z,11.85
2023-05-22T09:21:30.258Z,11.20
2023-05-22T09:23:10.398Z,12.25
2023-05-22T09:24:44.215Z,13.05
2023-05-22T09:26:16.105Z,11.82
2023-05-22T09:27:50.676Z,11.80
2023-05-22T09:29:22.507Z,13.68
2023-05-22T09:30:55.266Z,10.50
2023-05-22T09:32:29.384Z,12.23
2023-05-22T09:34:01.038Z,11.20
2023-05-22T09:35:32.890Z,11.20
2023-05-22T09:37:05.645Z,12.23
2023-05-22T09:38:37.623Z,12.05
2023-05-22T09:40:13.728Z,10.30
2023-05-22T09:41:45.583Z,11.25
2023-05-22T09:43:18.085Z,11.50
2023-05-22T09:44:49.866Z,12.40
2023-05-22T09:46:22.027Z,11.98
2023-05-22T09:47:53.764Z,13.18
2023-05-22T09:49:25.425Z,11.50
2023-05-22T09:50:59.772Z,11.82
2023-05-22T09:52:35.687Z,10.30
2023-05-22T09:54:09.618Z,12.38
2023-05-22T09:55:41.624Z,11.65
2023-05-22T09:57:17.109Z,12.02
2023-05-22T09:58:48.958Z,11.70
2023-05-22T10:00:23.494Z,11.57
2023-05-22T10:01:55.793Z,12.50
2023-05-22T10:03:27.854Z,12.43
2023-05-22T10:05:00.642Z,10.63
2023-05-22T10:06:34.263Z,11.77
2023-05-22T10:08:10.926Z,10.55
2023-05-22T10:09:43.335Z,11.18
2023-05-22T10:11:15.615Z,9.98
2023-05-22T10:12:56.344Z,12.52
2023-05-22T10:14:30.827Z,12.10
2023-05-22T10:16:04.574Z,10.02
2023-05-22T10:17:38.130Z,10.80
2023-05-22T10:19:11.642Z,10.50
2023-05-22T10:20:43.912Z,10.10
2023-05-22T10:22:20.843Z,12.32
2023-05-22T10:23:54.936Z,11.98
2023-05-22T10:25:26.952Z,11.75
2023-05-22T10:26:59.401Z,12.35
2023-05-22T10:28:38.588Z,10.18
2023-05-22T10:30:16.221Z,11.32
2023-05-22T10:32:03.611Z,11.77
2023-05-22T10:33:54.145Z,11.65
2023-05-22T10:35:32.672Z,12.07
2023-05-22T10:37:28.826Z,11.63
2023-05-22T10:39:31.290Z,11.35
2023-05-22T10:41:07.023Z,10.75
2023-05-22T10:42:39.016Z,12.15
2023-05-22T10:44:10.656Z,11.07
2023-05-22T10:45:46.490Z,11.45
2023-05-22T10:47:18.268Z,10.32
2023-05-22T10:48:54.124Z,12.32
2023-05-22T10:50:25.982Z,12.60
2023-05-22T10:51:58.279Z,11.40
2023-05-22T10:53:32.388Z,12.50
2023-05-22T10:55:09.278Z,10.65
2023-05-22T10:56:41.254Z,10.48
2023-05-22T10:58:13.705Z,10.88
2023-05-22T10:59:48.228Z,11.60
2023-05-22T11:01:21.203Z,12.07
2023-05-22T11:03:17.361Z,12.15
2023-05-22T11:04:49.925Z,12.40
2023-05-22T11:06:45.726Z,11.07
2023-05-22T11:08:26.751Z,11.15
2023-05-22T11:10:01.358Z,10.73
2023-05-22T11:11:33.037Z,12.43
2023-05-22T11:13:13.969Z,11.00
2023-05-22T11:14:54.323Z,11.25
2023-05-22T11:16:30.931Z,12.43
2023-05-22T11:18:03.416Z,12.70
2023-05-22T11:19:35.331Z,12.27
2023-05-22T11:21:10.056Z,11.45
2023-05-22T11:22:44.464Z,11.80
2023-05-22T11:24:18.127Z,11.60
2023-05-22T11:25:49.836Z,10.73
2023-05-22T11:27:21.817Z,12.85
2023-05-22T11:28:53.881Z,11.93
2023-05-22T11:30:28.348Z,12.93
2023-05-22T11:32:00.402Z,11.65
2023-05-22T11:33:32.306Z,10.93
2023-05-22T11:35:08.466Z,12.30
2023-05-22T11:36:40.225Z,11.85
2023-05-22T11:38:12.594Z,11.63
2023-05-22T11:39:49.594Z,12.27
2023-05-22T11:41:21.463Z,10.88
2023-05-22T11:42:54.009Z,11.50
2023-05-22T11:44:27.620Z,10.90
2023-05-22T11:46:07.864Z,10.63
2023-05-22T11:47:40.498Z,10.35
2023-05-22T11:49:13.193Z,10.40
2023-05-22T11:50:45.020Z,10.93
2023-05-22T11:52:17.389Z,10.43
2023-05-22T11:53:49.070Z,10.05
2023-05-22T11:55:20.760Z,10.25
2023-05-22T11:56:52.852Z,9.18
2023-05-22T11:58:28.553Z,9.45
2023-05-22T12:00:00.980Z,10.10
2023-05-22T12:01:32.644Z,8.68
2023-05-22T12:03:04.521Z,9.65
2023-05-22T12:04:37.899Z,9.68
2023-05-22T12:06:09.886Z,9.45
2023-05-22T12:07:41.834Z,9.98
2023-05-22T12:09:13.470Z,9.77
2023-05-22T12:10:50.854Z,9.80
2023-05-22T12:12:22.948Z,10.07
2023-05-22T12:14:04.661Z,10.30
2023-05-22T12:17:07.945Z,10.20
2023-05-22T12:18:41.440Z,10.20
2023-05-22T12:20:14.562Z,10.55
2023-05-22T12:21:46.244Z,9.40
2023-05-22T12:23:25.098Z,10.10
2023-05-22T12:24:56.781Z,9.65
2023-05-22T12:26:28.505Z,9.45
2023-05-22T12:28:00.196Z,10.48
2023-05-22T12:29:31.895Z,9.43
2023-05-22T12:31:03.571Z,9.15
2023-05-22T12:32:35.197Z,9.77
2023-05-22T12:34:08.414Z,9.25
2023-05-22T12:35:40.124Z,9.52
2023-05-22T12:37:22.802Z,10.10
2023-05-22T12:38:58.071Z,8.73
2023-05-22T12:40:29.727Z,9.65
2023-05-22T12:42:01.355Z,9.57
2023-05-22T12:43:33.222Z,10.57
2023-05-22T12:45:06.128Z,9.45
2023-05-22T12:46:38.263Z,9.77
2023-05-22T12:48:10.123Z,9.75
2023-05-22T12:49:41.825Z,9.20
2023-05-22T12:51:13.723Z,9.30
2023-05-22T12:52:45.435Z,10.27
2023-05-22T12:54:17.103Z,9.88
2023-05-22T12:55:48.709Z,9.73
2023-05-22T12:57:20.391Z,8.95
2023-05-22T12:58:52.414Z,9.63
2023-05-22T13:00:24.041Z,9.50
2023-05-22T13:01:57.768Z,9.75
2023-05-22T13:03:29.560Z,9.43
2023-05-22T13:05:01.337Z,8.80
2023-05-22T13:06:33.070Z,8.73
2023-05-22T13:08:04.901Z,8.60
2023-05-22T13:09:36.566Z,9.50
2023-05-22T13:11:08.251Z,8.25
2023-05-22T13:12:40.035Z,8.80
2023-05-22T13:14:11.666Z,9.40
2023-05-22T13:15:43.566Z,9.27
2023-05-22T13:17:15.331Z,9.88
2023-05-22T13:20:47.112Z,9.32
2023-05-22T13:22:18.897Z,10.25
2023-05-22T13:23:50.478Z,10.40
2023-05-22T13:25:22.208Z,10.40
2023-05-22T13:26:53.818Z,11.63
2023-05-22T13:28:25.451Z,10.80
2023-05-22T13:29:57.085Z,11.23
2023-05-22T13:31:28.920Z,10.13
2023-05-22T13:33:00.643Z,10.68
2023-05-22T13:34:32.358Z,11.00
2023-05-22T13:36:04.603Z,10.45
2023-05-22T13:37:36.546Z,10.68
2023-05-22T13:39:08.378Z,11.27
2023-05-22T13:40:40.062Z,10.05
2023-05-22T13:42:11.839Z,10.02
2023-05-22T13:43:43.480Z,11.07
2023-05-22T13:45:15.272Z,11.07
2023-05-22T13:46:47.171Z,11.95
2023-05-22T13:48:19.760Z,10.13
2023-05-22T13:49:51.900Z,10.10
2023-05-22T13:51:23.510Z,10.50
2023-05-22T13:52:55.325Z,9.35
2023-05-22T13:54:27.641Z,8.05
2023-05-22T13:55:59.394Z,10.05
2023-05-22T13:57:31.013Z,9.15
2023-05-22T13:59:05.965Z,9.55
2023-05-22T14:00:38.836Z,7.97
2023-05-22T14:02:10.638Z,9.07
2023-05-22T14:03:42.304Z,8.35
2023-05-22T14:05:14.112Z,10.02
2023-05-22T14:06:46.103Z,8.85
2023-05-22T14:08:18.016Z,9.18
2023-05-22T14:09:49.812Z,9.15
2023-05-22T14:11:22.457Z,9.50
2023-05-22T14:12:54.882Z,9.45
2023-05-22T14:14:26.668Z,10.55
2023-05-22T14:15:58.480Z,13.50
2023-05-22T14:17:30.136Z,13.25
2023-05-22T14:19:02.146Z,13.13
2023-05-22T14:20:34.457Z,12.80
2023-05-22T14:22:06.187Z,11.68
2023-05-22T14:23:37.892Z,9.43
2023-05-22T14:25:09.806Z,11.73
2023-05-22T14:26:41.975Z,11.45
2023-05-22T14:28:14.160Z,13.63
2023-05-22T14:29:45.974Z,11.68
2023-05-22T14:31:17.764Z,13.68
2023-05-22T14:32:49.628Z,13.05
2023-05-22T14:34:21.377Z,13.00
2023-05-22T14:35:53.267Z,12.35
2023-05-22T14:37:25.073Z,11.60
2023-05-22T14:38:57.130Z,13.85
2023-05-22T14:40:29.077Z,14.45
2023-05-22T14:42:01.024Z,14.88
2023-05-22T14:43:33.484Z,12.98
2023-05-22T14:45:05.637Z,15.02
2023-05-22T14:46:37.415Z,15.55
2023-05-22T14:48:11.056Z,14.63
2023-05-22T14:49:42.866Z,11.90
2023-05-22T14:51:14.508Z,12.57
2023-05-22T14:52:46.268Z,13.00
2023-05-22T14:54:19.199Z,11.50
2023-05-22T14:55:51.661Z,10.30
2023-05-22T14:57:23.380Z,11.55
2023-05-22T14:58:55.134Z,10.73
2023-05-22T15:00:26.906Z,9.55
2023-05-22T15:01:58.645Z,10.40
2023-05-22T15:03:31.053Z,9.45
2023-05-22T15:05:02.789Z,10.52
2023-05-22T15:06:34.918Z,10.43
2023-05-22T15:08:06.810Z,11.73
2023-05-22T15:09:38.602Z,11.15
2023-05-22T15:11:10.470Z,10.90
2023-05-22T15:12:42.239Z,12.00
2023-05-22T15:14:13.909Z,10.68
2023-05-22T15:15:45.758Z,14.27
2023-05-22T15:17:17.365Z,12.63
2023-05-22T15:18:49.200Z,11.45
2023-05-22T15:20:21.003Z,10.73
2023-05-22T15:21:54.598Z,9.30
2023-05-22T15:23:26.926Z,8.88
2023-05-22T15:25:09.129Z,9.10
2023-05-22T15:26:40.833Z,9.23
2023-05-22T15:28:12.515Z,8.55
2023-05-22T15:29:44.227Z,10.55
2023-05-22T15:31:16.161Z,8.45
2023-05-22T15:32:47.908Z,9.80
2023-05-22T15:34:19.667Z,8.75
2023-05-22T15:35:51.980Z,10.45
2023-05-22T15:37:23.870Z,9.15
2023-05-22T15:38:55.458Z,8.57
2023-05-22T15:40:27.249Z,8.80
2023-05-22T15:42:06.542Z,10.55
2023-05-22T15:43:38.727Z,9.38
2023-05-22T15:45:10.415Z,9.13
2023-05-22T15:46:42.043Z,10.93
2023-05-22T15:48:13.903Z,9.70
2023-05-22T15:49:45.868Z,9.73
2023-05-22T15:51:17.638Z,9.93
2023-05-22T15:52:49.250Z,9.80
2023-05-22T15:54:20.956Z,11.45
2023-05-22T15:55:52.625Z,12.20
2023-05-22T15:57:26.499Z,10.73
2023-05-22T15:58:58.161Z,13.30
2023-05-22T16:00:29.760Z,10.88
2023-05-22T16:02:01.429Z,11.13
2023-05-22T16:03:33.318Z,11.80
2023-05-22T16:05:05.548Z,12.48
2023-05-22T16:06:37.357Z,11.85
2023-05-22T16:08:12.262Z,12.32
2023-05-22T16:09:44.325Z,10.65
2023-05-22T16:11:16.269Z,11.77
2023-05-22T16:12:48.086Z,10.32
2023-05-22T16:14:19.879Z,11.18
2023-05-22T16:15:51.488Z,11.13
2023-05-22T16:17:23.185Z,12.55
2023-05-22T16:18:54.930Z,11.55
2023-05-22T16:20:26.889Z,11.82
2023-05-22T16:21:59.603Z,11.00
2023-05-22T16:23:31.277Z,11.45
2023-05-22T16:25:02.972Z,11.00
2023-05-22T16:26:37.535Z,10.20
2023-05-22T16:28:10.985Z,10.57
2023-05-22T16:29:42.701Z,10.13
2023-05-22T16:31:18.971Z,10.30
2023-05-22T16:32:51.096Z,9.05
2023-05-22T16:34:22.825Z,10.50
2023-05-22T16:35:54.436Z,9.05
2023-05-22T16:37:26.264Z,9.15
2023-05-22T16:38:58.033Z,9.32
2023-05-22T16:40:29.749Z,9.38
2023-05-22T16:42:01.566Z,10.02
2023-05-22T16:43:33.198Z,8.45
2023-05-22T16:45:06.205Z,9.48
2023-05-22T16:46:37.978Z,9.40
2023-05-22T16:48:09.703Z,9.23
2023-05-22T16:49:41.420Z,9.55
2023-05-22T16:51:13.147Z,8.50
2023-05-22T16:52:44.770Z,10.48
2023-05-22T16:54:16.533Z,9.65
2023-05-22T16:55:48.230Z,10.95
2023-05-22T16:57:19.970Z,9.27
2023-05-22T16:58:51.750Z,9.02
2023-05-22T17:00:23.617Z,8.15
2023-05-22T17:01:55.447Z,9.57
2023-05-22T17:03:27.314Z,8.82
2023-05-22T17:04:59.261Z,8.77
2023-05-22T17:06:31.831Z,9.65
2023-05-22T17:08:03.726Z,8.45
2023-05-22T17:09:35.478Z,9.05
2023-05-22T17:11:07.180Z,9.50
2023-05-22T17:12:38.799Z,10.20
2023-05-22T17:14:11.229Z,9.05
2023-05-22T17:15:42.903Z,10.85
2023-05-22T17:17:14.661Z,11.00
2023-05-22T17:18:46.418Z,10.40
2023-05-22T17:20:18.920Z,12.07
2023-05-22T17:21:50.668Z,14.32
2023-05-22T17:23:22.358Z,15.75
2023-05-22T17:24:53.979Z,15.25
2023-05-22T17:26:27.734Z,15.15
2023-05-22T17:27:59.398Z,15.35
2023-05-22T17:29:31.066Z,11.90
2023-05-22T17:31:02.887Z,11.20
2023-05-22T17:32:35.567Z,11.65
2023-05-22T17:34:07.414Z,10.18
2023-05-22T17:35:39.246Z,11.10
2023-05-22T17:37:10.943Z,11.70
2023-05-22T17:38:42.648Z,9.98
2023-05-22T17:40:14.434Z,10.48
2023-05-22T17:41:46.151Z,12.30
2023-05-22T17:43:19.171Z,10.23
2023-05-22T17:44:50.898Z,11.32
2023-05-22T17:46:22.993Z,10.35
2023-05-22T17:47:54.845Z,10.75
2023-05-22T17:49:26.482Z,12.50
2023-05-22T17:50:59.477Z,11.70
2023-05-22T17:52:31.302Z,12.13
2023-05-22T17:54:03.966Z,12.60
2023-05-22T17:55:36.105Z,12.32
2023-05-22T17:57:08.020Z,11.55
2023-05-22T17:58:39.688Z,11.52
2023-05-22T18:00:12.032Z,11.57
2023-05-22T18:01:44.134Z,12.27
2023-05-22T18:03:20.181Z,10.93
2023-05-22T18:04:52.189Z,13.30
2023-05-22T18:06:24.398Z,12.98
2023-05-22T18:07:56.228Z,11.52
2023-05-22T18:09:27.895Z,12.38
2023-05-22T18:10:59.645Z,10.25
2023-05-22T18:12:32.273Z,11.75
2023-05-22T18:14:04.510Z,13.02
2023-05-22T18:15:36.367Z,13.93
2023-05-22T18:17:08.142Z,11.68
2023-05-22T18:18:39.805Z,11.93
2023-05-22T18:20:16.692Z,11.25
2023-05-22T18:21:48.382Z,11.60
2023-05-22T18:23:20.948Z,10.70
2023-05-22T18:24:52.673Z,11.88
2023-05-22T18:26:24.363Z,13.23
2023-05-22T18:27:56.036Z,12.52
2023-05-22T18:29:27.669Z,10.77
2023-05-22T18:30:59.429Z,13.32
2023-05-22T18:32:31.595Z,11.02
2023-05-22T18:34:03.539Z,11.40
2023-05-22T18:35:35.218Z,14.35
2023-05-22T18:37:06.893Z,12.33
2023-05-22T18:38:38.627Z,11.73
2023-05-22T18:40:11.485Z,12.90
2023-05-22T18:41:43.211Z,14.88
2023-05-22T18:43:14.972Z,11.73
2023-05-22T18:44:48.840Z,13.18
2023-05-22T18:46:20.879Z,12.38
2023-05-22T18:47:52.689Z,11.85
2023-05-22T18:49:24.537Z,11.65
2023-05-22T18:50:57.782Z,11.68
2023-05-22T18:52:29.895Z,12.50
2023-05-22T18:54:01.594Z,12.15
2023-05-22T18:55:33.621Z,14.18
2023-05-22T18:57:05.491Z,11.77
2023-05-22T18:58:41.362Z,12.90
2023-05-22T19:00:13.223Z,12.10
2023-05-22T19:01:45.513Z,12.57
2023-05-22T19:03:17.226Z,13.02
2023-05-22T19:04:50.630Z,12.88
2023-05-22T19:06:23.144Z,11.63
2023-05-22T19:07:55.016Z,13.52
2023-05-22T19:09:26.638Z,12.80
2023-05-22T19:11:01.408Z,12.15
2023-05-22T19:12:33.310Z,11.15
2023-05-22T19:14:05.138Z,11.68
2023-05-22T19:15:37.649Z,11.27
2023-05-22T19:17:09.968Z,12.05
2023-05-22T19:18:41.844Z,10.60
2023-05-22T19:20:13.784Z,12.30
2023-05-22T19:21:45.453Z,12.15
2023-05-22T19:23:17.111Z,12.43
2023-05-22T19:24:48.795Z,11.40
2023-05-22T19:26:20.390Z,11.60
2023-05-22T19:27:52.355Z,12.27
2023-05-22T19:29:24.069Z,12.15
2023-05-22T19:30:58.215Z,12.85
2023-05-22T19:32:29.972Z,11.98
2023-05-22T19:34:01.752Z,12.48
2023-05-22T19:35:33.382Z,31.48
2023-05-22T19:37:05.277Z,14.88
2023-05-22T19:38:37.048Z,13.82
2023-05-22T19:40:12.383Z,12.55
2023-05-22T19:41:44.054Z,12.70
2023-05-22T19:43:15.771Z,11.85
2023-05-22T19:44:47.699Z,10.93
2023-05-22T19:46:19.455Z,12.52
2023-05-22T19:47:51.201Z,13.02
2023-05-22T19:49:22.882Z,12.18
2023-05-22T19:50:54.564Z,12.82
2023-05-22T19:52:29.107Z,12.93
2023-05-22T19:54:00.794Z,14.10
2023-05-22T19:55:32.677Z,13.82
2023-05-22T19:57:04.489Z,14.25
2023-05-22T19:58:36.208Z,14.32
2023-05-22T20:00:11.019Z,13.43
2023-05-22T20:01:42.785Z,13.65
2023-05-22T20:03:14.992Z,12.90
2023-05-22T20:04:48.394Z,12.45
2023-05-22T20:06:20.160Z,13.48
2023-05-22T20:07:51.834Z,13.85
2023-05-22T20:09:23.498Z,12.48
2023-05-22T20:10:55.226Z,12.30
2023-05-22T20:12:26.899Z,11.88
2023-05-22T20:13:58.587Z,15.23
2023-05-22T20:15:31.095Z,14.45
2023-05-22T20:17:03.012Z,15.20
2023-05-22T20:18:34.752Z,14.70
2023-05-22T20:20:07.878Z,15.27
2023-05-22T20:21:39.660Z,12.38
2023-05-22T20:23:11.561Z,13.57
2023-05-22T20:24:43.333Z,14.15
2023-05-22T20:26:15.134Z,12.85
2023-05-22T20:27:46.934Z,13.32
2023-05-22T20:29:19.226Z,14.63
2023-05-22T20:30:51.142Z,14.63